Language selection

Weather shortcuts

Eastern Lake Superior: Past 24 Hour Conditions

 

Welcome Island

04:00 PM EDT 29 May 2024
Disclaimer

This table is a summary of hourly weather conditions for the past 24 hours.
Please note that these observations might not always be representative of weather conditions over their associated marine area.

Date / Time
(EDT)
Wind(knots) Conditions Visibility(km) Pressure(kPa) Air tempC) Relative humidity(%) Dew pointC)
29 May 2024
16:00 SSW 10 gusts 17 N/A N/A 102.5 13 48 3
15:00 SSW 10 gusts 15 N/A N/A 102.6 13 56 4
14:00 S 5 N/A N/A 102.6 15 48 4
13:00 S 9 N/A N/A 102.7 13 48 2
12:00 S 5 N/A N/A 102.7 14 45 2
11:00 ENE 2 N/A N/A 102.7 14 46 2
10:00 NW 3 N/A N/A 102.8 12 49 1
9:00 NW 4 N/A N/A 102.7 10 63 4
8:00 NW 5 N/A N/A 102.6 9 72 4
7:00 WNW 5 N/A N/A 102.6 9 78 5
6:00 NNW 4 N/A N/A 102.5 9 65 3
5:00 NNE 6 N/A N/A 102.4 9 62 2
4:00 NE 9 N/A N/A 102.4 9 66 3
3:00 NE 8 N/A N/A 102.4 10 69 4
2:00 NNE 10 N/A N/A 102.3 10 65 4
1:00 N 3 N/A N/A 102.3 10 70 5
0:00 NNW 11 N/A N/A 102.2 11 67 6
28 May 2024
23:00 NNW 8 N/A N/A 102.2 13 61 5
22:00 N 12 N/A N/A 102.1 13 67 7
21:00 N 11 N/A N/A 102.1 13 68 7
20:00 NNE 10 N/A N/A 102.1 13 65 7
19:00 NNE 4 N/A N/A 102.0 14 68 8
18:00 SSE 3 N/A N/A 102.0 15 69 9
17:00 S 6 N/A N/A 101.9 13 79 9
16:00 SE 2 N/A N/A 101.8 15 67 9

Zoom-in to make a selection

Map of Great Lakes - Lake Superior marine weather areas Mid Superior - 45001 East Superior - 45004 West Superior - 45006 Slate Island - 45136 Lake Of the Woods - 45148 Kenora Airport Royal Island Armstrong Airport Caribou Island Marathon Airport Pukaskwa National Park Thunder Bay Airport Welcome Island Little Flatland Island Sault Ste. Marie Airport Wawa Airport
Legend:
buoy Buoy
land station Land Station

Great Lakes - Lake Superior Area

Another Region

Features

New Predicting and Alerting Coastal Flooding Program

Find out about coastal flooding coverage, forecasts and warnings in your region

Date modified: